createdAt,value
2024-01-06T00:02:47.094Z,99120.94
2024-01-06T00:07:48.777Z,99133.69
2024-01-06T00:12:50.519Z,99130.06
2024-01-06T00:17:52.262Z,99126.31
2024-01-06T00:22:53.942Z,99130.28
2024-01-06T00:27:55.618Z,99132.72
2024-01-06T00:32:57.397Z,99140.75
2024-01-06T00:38:01.756Z,99131.41
2024-01-06T00:43:03.560Z,99137.13
2024-01-06T00:48:06.152Z,99143.81
2024-01-06T00:53:07.957Z,99146.69
2024-01-06T00:58:09.923Z,99148.81
2024-01-06T01:03:11.704Z,99144.38
2024-01-06T01:08:13.341Z,99142.41
2024-01-06T01:13:14.998Z,99140.94
2024-01-06T01:18:16.866Z,99158.31
2024-01-06T01:23:18.527Z,99159.63
2024-01-06T01:28:20.267Z,99159.53
2024-01-06T01:33:22.295Z,99158.31
2024-01-06T01:38:23.969Z,99160.59
2024-01-06T01:43:25.703Z,99165.00
2024-01-06T01:48:27.675Z,99161.56
2024-01-06T01:53:29.577Z,99180.22
2024-01-06T01:58:31.450Z,99166.13
2024-01-06T02:03:33.901Z,99162.03
2024-01-06T02:08:35.623Z,99159.03
2024-01-06T02:13:38.714Z,99164.56
2024-01-06T02:18:40.461Z,99156.81
2024-01-06T02:23:42.105Z,99149.41
2024-01-06T02:28:48.931Z,99146.34
2024-01-06T02:33:50.839Z,99144.78
2024-01-06T02:38:52.505Z,99149.47
2024-01-06T02:43:55.930Z,99154.72
2024-01-06T02:48:57.692Z,99165.00
2024-01-06T02:53:59.355Z,99167.69
2024-01-06T02:59:00.949Z,99166.25
2024-01-06T03:04:02.774Z,99160.97
2024-01-06T03:09:04.527Z,99154.25
2024-01-06T03:14:06.140Z,99149.69
2024-01-06T03:19:07.954Z,99158.53
2024-01-06T03:24:10.479Z,99165.22
2024-01-06T03:29:12.948Z,99175.28
2024-01-06T03:34:14.813Z,99172.75
2024-01-06T03:39:16.620Z,99172.25
2024-01-06T03:44:18.253Z,99185.75
2024-01-06T03:49:21.963Z,99194.88
2024-01-06T03:54:23.978Z,99184.38
2024-01-06T03:59:25.618Z,99183.47
2024-01-06T04:04:27.222Z,99181.75
2024-01-06T04:09:28.891Z,99186.50
2024-01-06T04:14:30.500Z,99177.50
2024-01-06T04:19:32.513Z,99190.34
2024-01-06T04:24:38.473Z,99192.72
2024-01-06T04:29:40.618Z,99197.41
2024-01-06T04:34:43.074Z,99201.19
2024-01-06T04:39:44.885Z,99195.88
2024-01-06T04:44:46.584Z,99204.44
2024-01-06T04:49:48.375Z,99208.47
2024-01-06T04:54:50.169Z,99214.72
2024-01-06T04:59:51.920Z,99216.84
2024-01-06T05:04:53.586Z,99220.84
2024-01-06T05:09:55.273Z,99227.50
2024-01-06T05:14:56.935Z,99228.09
2024-01-06T05:19:59.668Z,99248.47
2024-01-06T05:25:01.308Z,99250.72
2024-01-06T05:30:03.474Z,99253.41
2024-01-06T05:35:05.973Z,99267.50
2024-01-06T05:40:08.465Z,99264.25
2024-01-06T05:45:14.300Z,99267.03
2024-01-06T05:50:17.216Z,99271.09
2024-01-06T05:55:18.865Z,99274.34
2024-01-06T06:00:20.753Z,99277.56
2024-01-06T06:05:22.451Z,99280.06
2024-01-06T06:10:24.152Z,99287.56
2024-01-06T06:15:25.839Z,99277.75
2024-01-06T06:20:27.480Z,99288.41
2024-01-06T06:25:29.075Z,99287.13
2024-01-06T06:30:30.753Z,99286.31
2024-01-06T06:35:32.452Z,99294.31
2024-01-06T06:40:34.074Z,99310.63
2024-01-06T06:45:36.283Z,99322.50
2024-01-06T06:50:38.014Z,99330.22
2024-01-06T06:55:39.781Z,99335.47
2024-01-06T07:00:41.679Z,99351.53
2024-01-06T07:05:43.464Z,99354.22
2024-01-06T07:10:45.984Z,99356.63
2024-01-06T07:15:47.624Z,99349.91
2024-01-06T07:20:49.452Z,99357.72
2024-01-06T07:25:51.046Z,99355.16
2024-01-06T07:30:52.732Z,99362.84
2024-01-06T07:35:54.406Z,99365.47
2024-01-06T07:40:56.003Z,99370.88
2024-01-06T07:45:58.121Z,99389.34
2024-01-06T07:50:59.741Z,99387.81
2024-01-06T07:56:01.387Z,99385.75
2024-01-06T08:01:03.184Z,99404.09
2024-01-06T08:06:05.243Z,99408.97
2024-01-06T08:11:06.873Z,99419.44
2024-01-06T08:16:08.512Z,99420.91
2024-01-06T08:21:10.165Z,99424.53
2024-01-06T08:26:13.553Z,99429.75
2024-01-06T08:31:15.717Z,99443.53
2024-01-06T08:36:18.299Z,99430.53
2024-01-06T08:41:19.933Z,99449.38
2024-01-06T08:46:21.595Z,99457.25
2024-01-06T08:51:23.276Z,99461.25
2024-01-06T08:56:24.887Z,99479.25
2024-01-06T09:01:26.699Z,99478.16
2024-01-06T09:06:28.437Z,99475.19
2024-01-06T09:11:30.050Z,99483.44
2024-01-06T09:16:31.691Z,99488.50
2024-01-06T09:21:33.369Z,99493.47
2024-01-06T09:26:38.135Z,99501.31
2024-01-06T09:31:40.157Z,99510.34
2024-01-06T09:36:41.956Z,99500.88
2024-01-06T09:41:43.867Z,99506.22
2024-01-06T09:46:45.945Z,99506.28
2024-01-06T09:51:52.427Z,99501.25
2024-01-06T09:56:54.175Z,99512.84
2024-01-06T10:01:57.580Z,99510.44
2024-01-06T10:06:59.525Z,99512.69
2024-01-06T10:12:01.381Z,99520.50
2024-01-06T10:17:03.840Z,99520.06
2024-01-06T10:22:05.640Z,99528.84
2024-01-06T10:27:10.008Z,99534.09
2024-01-06T10:32:11.715Z,99530.72
2024-01-06T10:37:13.635Z,99529.75
2024-01-06T10:42:16.469Z,99528.31
2024-01-06T10:47:19.604Z,99530.19
2024-01-06T10:52:22.261Z,99521.88
2024-01-06T10:57:24.756Z,99526.63
2024-01-06T11:02:27.615Z,99513.19
2024-01-06T11:07:29.914Z,99513.19
2024-01-06T11:12:31.692Z,99511.66
2024-01-06T11:17:57.035Z,99512.44
2024-01-06T11:23:20.545Z,99530.41
2024-01-06T11:28:22.269Z,99534.25
2024-01-06T11:33:23.978Z,99534.69
2024-01-06T11:38:25.623Z,99526.09
2024-01-06T11:43:28.257Z,99547.94
2024-01-06T11:48:33.052Z,99540.72
2024-01-06T11:53:34.920Z,99535.22
2024-01-06T11:58:36.648Z,99532.97
2024-01-06T12:03:38.389Z,99536.16
2024-01-06T12:08:40.624Z,99542.63
2024-01-06T12:13:42.242Z,99535.38
2024-01-06T12:18:43.941Z,99541.03
2024-01-06T12:23:45.624Z,99544.81
2024-01-06T12:28:47.829Z,99543.13
2024-01-06T12:33:49.690Z,99548.59
2024-01-06T12:38:52.297Z,99551.94
2024-01-06T12:43:54.055Z,99557.19
2024-01-06T12:48:56.059Z,99553.78
2024-01-06T12:53:57.879Z,99568.88
2024-01-06T12:58:59.522Z,99558.91
2024-01-06T13:04:02.641Z,99565.53
2024-01-06T13:09:07.530Z,99567.66
2024-01-06T13:14:10.028Z,99570.09
2024-01-06T13:19:11.770Z,99575.91
2024-01-06T13:24:13.568Z,99574.22
2024-01-06T13:29:15.192Z,99587.72
2024-01-06T13:34:17.223Z,99588.06
2024-01-06T13:39:22.135Z,99596.56
2024-01-06T13:44:24.152Z,99608.38
2024-01-06T13:49:26.021Z,99607.47
2024-01-06T13:54:27.939Z,99619.97
2024-01-06T13:59:29.728Z,99613.03
2024-01-06T14:04:31.705Z,99624.50
2024-01-06T14:09:33.559Z,99631.59
2024-01-06T14:14:35.258Z,99633.03
2024-01-06T14:19:38.097Z,99642.06
2024-01-06T14:24:39.733Z,99656.00
2024-01-06T14:29:42.542Z,99662.19
2024-01-06T14:34:44.425Z,99670.09
2024-01-06T14:39:46.821Z,99674.94
2024-01-06T14:44:48.469Z,99683.34
2024-01-06T14:49:50.190Z,99682.34
2024-01-06T14:54:51.954Z,99682.03
2024-01-06T14:59:53.665Z,99675.09
2024-01-06T15:04:56.046Z,99677.63
2024-01-06T15:10:04.301Z,99686.66
2024-01-06T15:15:08.378Z,99690.31
2024-01-06T15:20:11.401Z,99687.22
2024-01-06T15:25:13.354Z,99693.59
2024-01-06T15:30:17.328Z,99696.56
2024-01-06T15:35:20.591Z,99708.16
2024-01-06T15:40:23.250Z,99718.91
2024-01-06T15:45:24.956Z,99711.38
2024-01-06T15:50:26.705Z,99707.34
2024-01-06T15:55:28.289Z,99707.41
2024-01-06T16:00:29.960Z,99712.03
2024-01-06T16:05:31.682Z,99721.25
2024-01-06T16:10:33.357Z,99723.88
2024-01-06T16:15:35.079Z,99728.88
2024-01-06T16:20:36.713Z,99732.78
2024-01-06T16:25:39.458Z,99736.22
2024-01-06T16:30:42.293Z,99748.09
2024-01-06T16:35:47.074Z,99749.63
2024-01-06T16:40:48.767Z,99749.47
2024-01-06T16:45:50.541Z,99744.56
2024-01-06T16:50:52.227Z,99754.63
2024-01-06T16:55:53.950Z,99756.22
2024-01-06T17:00:55.927Z,99763.53
2024-01-06T17:05:57.691Z,99761.53
2024-01-06T17:10:59.341Z,99772.47
2024-01-06T17:16:01.001Z,99770.66
2024-01-06T17:21:03.516Z,99779.91
2024-01-06T17:26:05.116Z,99783.75
2024-01-06T17:31:06.803Z,99792.44
2024-01-06T17:36:08.614Z,99804.66
2024-01-06T17:41:10.241Z,99807.22
2024-01-06T17:46:11.895Z,99813.56
2024-01-06T17:51:13.627Z,99817.63
2024-01-06T17:56:15.413Z,99819.00
2024-01-06T18:01:17.231Z,99811.19
2024-01-06T18:06:19.046Z,99821.97
2024-01-06T18:11:20.841Z,99825.03
2024-01-06T18:16:22.689Z,99823.03
2024-01-06T18:21:24.395Z,99815.91
2024-01-06T18:26:27.026Z,99814.41
2024-01-06T18:31:28.664Z,99834.41
2024-01-06T18:36:30.387Z,99830.84
2024-01-06T18:41:32.034Z,99840.84
2024-01-06T18:46:33.668Z,99842.97
2024-01-06T18:51:38.613Z,99850.81
2024-01-06T18:56:40.403Z,99850.56
2024-01-06T19:01:44.519Z,99843.66
2024-01-06T19:06:47.811Z,99844.25
2024-01-06T19:11:49.472Z,99840.06
2024-01-06T19:16:51.625Z,99844.97
2024-01-06T19:21:53.282Z,99863.16
2024-01-06T19:26:55.859Z,99863.06
2024-01-06T19:31:58.371Z,99869.81
2024-01-06T19:37:00.225Z,99868.22
2024-01-06T19:42:02.013Z,99868.91
2024-01-06T19:47:03.834Z,99865.19
2024-01-06T19:52:05.855Z,99872.47
2024-01-06T19:57:09.073Z,99872.03
2024-01-06T20:02:10.836Z,99870.88
2024-01-06T20:07:12.661Z,99875.94
2024-01-06T20:12:14.498Z,99878.56
2024-01-06T20:17:16.567Z,99882.81
2024-01-06T20:22:18.322Z,99887.00
2024-01-06T20:27:20.402Z,99877.50
2024-01-06T20:32:22.286Z,99889.81
2024-01-06T20:37:26.253Z,99873.91
2024-01-06T20:42:30.620Z,99878.13
2024-01-06T20:47:32.413Z,99891.47
2024-01-06T20:52:34.206Z,99884.25
2024-01-06T20:57:35.918Z,99895.44
2024-01-06T21:02:37.665Z,99887.72
2024-01-06T21:07:42.543Z,99893.41
2024-01-06T21:12:44.447Z,99898.00
2024-01-06T21:17:46.215Z,99900.94
2024-01-06T21:22:47.995Z,99898.84
2024-01-06T21:27:49.837Z,99902.56
2024-01-06T21:32:52.950Z,99911.44
2024-01-06T21:37:54.662Z,99914.78
2024-01-06T21:42:56.377Z,99923.19
2024-01-06T21:47:58.238Z,99925.88
2024-01-06T21:53:00.752Z,99927.25
2024-01-06T21:58:02.417Z,99925.16
2024-01-06T22:03:05.569Z,99937.63
2024-01-06T22:08:08.271Z,99935.75
2024-01-06T22:13:10.025Z,99934.38
2024-01-06T22:18:11.832Z,99942.44
2024-01-06T22:23:13.484Z,99950.38
2024-01-06T22:28:15.399Z,99951.22
2024-01-06T22:33:18.245Z,99953.97
2024-01-06T22:38:19.982Z,99946.38
2024-01-06T22:43:21.601Z,99953.59
2024-01-06T22:48:23.298Z,99958.25
2024-01-06T22:53:24.960Z,99947.72
2024-01-06T22:58:26.757Z,99953.41
2024-01-06T23:03:28.606Z,99955.59
2024-01-06T23:08:30.321Z,99962.75
2024-01-06T23:13:32.285Z,99962.53
2024-01-06T23:18:34.137Z,99978.97
2024-01-06T23:23:37.674Z,99967.16
2024-01-06T23:28:39.277Z,99981.31
2024-01-06T23:33:41.606Z,99976.97
2024-01-06T23:38:43.422Z,99978.09
2024-01-06T23:43:45.095Z,99984.38
2024-01-06T23:48:46.871Z,99990.53
2024-01-06T23:53:50.762Z,99988.81
2024-01-06T23:58:53.855Z,100001.75
